createdAt,value
2023-04-29T00:01:59.359Z,10.90
2023-04-29T00:04:27.978Z,10.70
2023-04-29T00:06:58.950Z,10.70
2023-04-29T00:09:27.366Z,10.70
2023-04-29T00:11:56.735Z,10.70
2023-04-29T00:14:28.552Z,10.70
2023-04-29T00:16:57.288Z,10.70
2023-04-29T00:19:25.792Z,10.70
2023-04-29T00:21:54.994Z,10.60
2023-04-29T00:24:23.666Z,10.60
2023-04-29T00:26:51.948Z,10.60
2023-04-29T00:29:20.770Z,10.60
2023-04-29T00:31:50.476Z,10.50
2023-04-29T00:34:18.828Z,10.60
2023-04-29T00:36:47.063Z,10.50
2023-04-29T00:39:15.559Z,10.40
2023-04-29T00:41:44.011Z,10.60
2023-04-29T00:44:15.168Z,10.50
2023-04-29T00:46:43.797Z,10.40
2023-04-29T00:49:15.920Z,10.40
2023-04-29T00:51:47.388Z,10.50
2023-04-29T00:54:17.529Z,10.40
2023-04-29T00:56:47.465Z,10.40
2023-04-29T00:59:17.221Z,10.30
2023-04-29T01:01:46.201Z,10.30
2023-04-29T01:04:17.284Z,10.30
2023-04-29T01:07:00.539Z,10.30
2023-04-29T01:09:41.541Z,10.30
2023-04-29T01:12:17.581Z,10.40
2023-04-29T01:14:49.760Z,10.40
2023-04-29T01:17:23.727Z,10.40
2023-04-29T01:19:56.981Z,10.40
2023-04-29T01:22:25.245Z,10.30
2023-04-29T01:24:57.327Z,10.40
2023-04-29T01:27:32.912Z,10.50
2023-04-29T01:30:09.340Z,10.30
2023-04-29T01:32:48.321Z,10.30
2023-04-29T01:35:31.529Z,10.40
2023-04-29T01:38:12.208Z,10.40
2023-04-29T01:40:49.084Z,10.30
2023-04-29T01:43:18.645Z,10.40
2023-04-29T01:45:51.600Z,10.60
2023-04-29T01:48:20.311Z,10.40
2023-04-29T01:50:51.172Z,10.40
2023-04-29T01:53:19.368Z,10.40
2023-04-29T01:55:49.193Z,10.40
2023-04-29T01:58:17.630Z,10.50
2023-04-29T02:00:46.074Z,10.40
2023-04-29T02:03:14.274Z,10.40
2023-04-29T02:05:44.963Z,10.50
2023-04-29T02:08:13.398Z,10.50
2023-04-29T02:10:55.906Z,10.50
2023-04-29T02:13:25.774Z,10.60
2023-04-29T02:15:59.919Z,10.60
2023-04-29T02:18:28.142Z,10.60
2023-04-29T02:21:02.842Z,10.50
2023-04-29T02:23:31.350Z,10.70
2023-04-29T02:25:59.650Z,10.60
2023-04-29T02:28:35.443Z,10.60
2023-04-29T02:31:03.817Z,10.70
2023-04-29T02:33:32.231Z,10.60
2023-04-29T02:36:00.935Z,10.60
2023-04-29T02:38:29.517Z,10.60
2023-04-29T02:40:58.505Z,10.60
2023-04-29T02:43:31.242Z,10.50
2023-04-29T02:46:00.471Z,10.60
2023-04-29T02:48:28.890Z,10.60
2023-04-29T02:50:59.665Z,10.50
2023-04-29T02:53:28.025Z,10.70
2023-04-29T02:55:57.223Z,10.70
2023-04-29T02:58:25.646Z,10.70
2023-04-29T03:00:55.654Z,10.70
2023-04-29T03:03:24.624Z,10.80
2023-04-29T03:05:56.381Z,10.80
2023-04-29T03:08:24.560Z,10.80
2023-04-29T03:10:52.822Z,10.80
2023-04-29T03:13:21.348Z,10.70
2023-04-29T03:15:49.529Z,10.80
2023-04-29T03:18:19.384Z,11.00
2023-04-29T03:20:47.730Z,10.90
2023-04-29T03:23:16.054Z,10.90
2023-04-29T03:25:44.266Z,10.80
2023-04-29T03:28:12.356Z,10.90
2023-04-29T03:30:40.733Z,11.00
2023-04-29T03:33:08.981Z,11.00
2023-04-29T03:35:38.725Z,10.90
2023-04-29T03:38:07.098Z,11.00
2023-04-29T03:40:35.341Z,11.00
2023-04-29T03:43:03.758Z,11.00
2023-04-29T03:45:31.780Z,11.00
2023-04-29T03:48:00.179Z,11.10
2023-04-29T03:50:32.052Z,11.10
2023-04-29T03:53:04.422Z,11.10
2023-04-29T03:55:32.877Z,11.00
2023-04-29T03:58:01.207Z,11.00
2023-04-29T04:00:31.568Z,11.00
2023-04-29T04:03:02.093Z,11.00
2023-04-29T04:05:31.716Z,11.20
2023-04-29T04:08:01.771Z,11.00
2023-04-29T04:10:30.209Z,11.00
2023-04-29T04:12:58.536Z,11.20
2023-04-29T04:15:26.796Z,11.00
2023-04-29T04:17:55.265Z,11.20
2023-04-29T04:20:23.720Z,11.00
2023-04-29T04:22:52.180Z,11.00
2023-04-29T04:25:22.022Z,11.00
2023-04-29T04:27:52.425Z,10.90
2023-04-29T04:30:23.322Z,11.00
2023-04-29T04:32:53.427Z,10.90
2023-04-29T04:35:22.007Z,11.00
2023-04-29T04:37:52.081Z,11.10
2023-04-29T04:40:23.113Z,11.10
2023-04-29T04:42:55.279Z,11.00
2023-04-29T04:45:23.850Z,11.10
2023-04-29T04:47:52.077Z,11.00
2023-04-29T04:50:21.566Z,10.90
2023-04-29T04:52:49.770Z,11.00
2023-04-29T04:55:23.131Z,11.00
2023-04-29T04:57:51.706Z,11.00
2023-04-29T05:00:22.147Z,11.10
2023-04-29T05:02:50.512Z,11.30
2023-04-29T05:05:19.204Z,11.10
2023-04-29T05:07:49.436Z,11.10
2023-04-29T05:10:17.799Z,11.10
2023-04-29T05:12:47.850Z,11.10
2023-04-29T05:15:17.025Z,11.10
2023-04-29T05:17:45.413Z,11.00
2023-04-29T05:20:14.259Z,11.00
2023-04-29T05:22:43.049Z,11.00
2023-04-29T05:25:14.140Z,11.00
2023-04-29T05:27:44.215Z,11.20
2023-04-29T05:30:18.445Z,11.00
2023-04-29T05:32:47.263Z,11.00
2023-04-29T05:35:15.619Z,11.10
2023-04-29T05:37:44.401Z,11.10
2023-04-29T05:40:13.236Z,11.10
2023-04-29T05:42:44.369Z,11.10
2023-04-29T05:45:14.587Z,11.10
2023-04-29T05:47:42.977Z,11.10
2023-04-29T05:50:11.716Z,11.10
2023-04-29T05:52:45.917Z,11.10
2023-04-29T05:55:14.392Z,11.10
2023-04-29T05:57:44.665Z,11.10
2023-04-29T06:00:15.165Z,11.10
2023-04-29T06:02:57.598Z,11.10
2023-04-29T06:05:27.412Z,11.00
2023-04-29T06:07:56.365Z,11.20
2023-04-29T06:10:24.842Z,11.20
2023-04-29T06:12:53.008Z,11.30
2023-04-29T06:15:22.961Z,11.30
2023-04-29T06:17:51.282Z,11.40
2023-04-29T06:20:19.809Z,11.30
2023-04-29T06:22:48.021Z,11.40
2023-04-29T06:25:16.547Z,11.40
2023-04-29T06:27:45.031Z,11.50
2023-04-29T06:30:13.793Z,11.50
2023-04-29T06:32:44.074Z,11.50
2023-04-29T06:35:12.444Z,11.50
2023-04-29T06:37:40.865Z,11.60
2023-04-29T06:40:10.318Z,11.70
2023-04-29T06:42:38.705Z,11.80
2023-04-29T06:45:08.205Z,11.80
2023-04-29T06:47:36.559Z,11.70
2023-04-29T06:50:09.895Z,11.80
2023-04-29T06:52:38.224Z,11.90
2023-04-29T06:55:10.212Z,11.90
2023-04-29T06:57:38.512Z,11.90
2023-04-29T07:00:08.562Z,11.90
2023-04-29T07:02:39.176Z,12.10
2023-04-29T07:05:10.383Z,12.10
2023-04-29T07:07:38.690Z,12.00
2023-04-29T07:10:07.393Z,12.00
2023-04-29T07:12:35.745Z,12.00
2023-04-29T07:15:04.126Z,12.00
2023-04-29T07:17:32.768Z,12.00
2023-04-29T07:20:01.039Z,12.10
2023-04-29T07:22:30.638Z,12.20
2023-04-29T07:24:59.141Z,12.10
2023-04-29T07:27:28.460Z,12.10
2023-04-29T07:29:57.041Z,12.10
2023-04-29T07:32:25.410Z,12.20
2023-04-29T07:34:54.039Z,12.30
2023-04-29T07:37:22.715Z,12.30
2023-04-29T07:39:53.088Z,12.50
2023-04-29T07:42:27.036Z,12.30
2023-04-29T07:44:56.143Z,12.30
2023-04-29T07:47:24.503Z,12.50
2023-04-29T07:49:53.204Z,12.50
2023-04-29T07:52:21.603Z,12.60
2023-04-29T07:54:56.613Z,12.60
2023-04-29T07:57:24.980Z,12.60
2023-04-29T07:59:59.449Z,12.50
2023-04-29T08:02:33.112Z,12.50
2023-04-29T08:05:03.347Z,12.50
2023-04-29T08:07:32.065Z,12.40
2023-04-29T08:10:03.643Z,12.40
2023-04-29T08:12:31.984Z,12.30
2023-04-29T08:15:00.326Z,12.30
2023-04-29T08:17:28.854Z,12.40
2023-04-29T08:20:00.210Z,12.40
2023-04-29T08:22:29.785Z,12.50
2023-04-29T08:24:58.867Z,12.60
2023-04-29T08:27:28.924Z,12.70
2023-04-29T08:29:57.735Z,12.70
2023-04-29T08:32:25.997Z,12.70
2023-04-29T08:34:54.679Z,12.70
2023-04-29T08:37:23.044Z,12.70
2023-04-29T08:39:51.406Z,12.80
2023-04-29T08:42:36.554Z,12.80
2023-04-29T08:45:06.442Z,12.90
2023-04-29T08:47:38.319Z,13.10
2023-04-29T08:50:10.750Z,13.00
2023-04-29T08:52:39.194Z,13.10
2023-04-29T08:55:09.020Z,13.10
2023-04-29T08:57:44.560Z,13.20
2023-04-29T09:00:14.009Z,13.20
2023-04-29T09:02:47.331Z,13.30
2023-04-29T09:05:18.737Z,13.40
2023-04-29T09:07:48.019Z,13.40
2023-04-29T09:10:19.002Z,13.40
2023-04-29T09:12:48.867Z,13.60
2023-04-29T09:15:17.301Z,13.80
2023-04-29T09:17:47.005Z,14.00
2023-04-29T09:20:34.290Z,13.80
2023-04-29T09:23:04.158Z,14.00
2023-04-29T09:25:36.599Z,14.10
2023-04-29T09:28:18.202Z,14.10
2023-04-29T09:30:59.852Z,14.20
2023-04-29T09:33:31.617Z,14.30
2023-04-29T09:36:01.033Z,14.40
2023-04-29T09:38:29.332Z,14.40
2023-04-29T09:40:59.885Z,14.60
2023-04-29T09:43:32.132Z,14.70
2023-04-29T09:46:00.682Z,14.50
2023-04-29T09:48:35.748Z,14.60
2023-04-29T09:51:09.555Z,14.70
2023-04-29T09:53:39.052Z,14.80
2023-04-29T09:56:08.081Z,14.80
2023-04-29T09:58:44.164Z,14.90
2023-04-29T10:01:14.336Z,15.00
2023-04-29T10:03:43.855Z,15.20
2023-04-29T10:06:13.501Z,15.20
2023-04-29T10:08:42.577Z,15.50
2023-04-29T10:11:13.084Z,15.50
2023-04-29T10:13:44.541Z,15.50
2023-04-29T10:16:29.338Z,15.40
2023-04-29T10:19:01.351Z,15.60
2023-04-29T10:21:31.454Z,15.80
2023-04-29T10:24:03.734Z,15.80
2023-04-29T10:26:32.484Z,15.90
2023-04-29T10:29:03.704Z,15.90
2023-04-29T10:31:34.568Z,15.80
2023-04-29T10:34:07.724Z,15.90
2023-04-29T10:36:38.565Z,16.40
2023-04-29T10:39:09.729Z,16.70
2023-04-29T10:41:48.119Z,16.80
2023-04-29T10:44:22.901Z,16.50
2023-04-29T10:46:51.095Z,16.70
2023-04-29T10:49:19.633Z,17.00
2023-04-29T10:51:47.956Z,17.40
2023-04-29T10:54:25.636Z,17.70
2023-04-29T10:56:57.029Z,17.40
2023-04-29T10:59:47.141Z,17.40
2023-04-29T11:02:17.350Z,17.30
2023-04-29T11:05:10.509Z,17.30
2023-04-29T11:07:38.826Z,17.50
2023-04-29T11:10:08.592Z,17.80
2023-04-29T11:12:36.918Z,17.70
2023-04-29T11:15:11.565Z,17.40
2023-04-29T11:17:41.502Z,17.10
2023-04-29T11:20:14.672Z,17.00
2023-04-29T11:22:53.440Z,17.00
2023-04-29T11:25:21.773Z,17.20
2023-04-29T11:27:52.593Z,17.40
2023-04-29T11:30:23.321Z,17.40
2023-04-29T11:32:52.227Z,17.60
2023-04-29T11:35:20.526Z,17.80
2023-04-29T11:37:49.003Z,18.00
2023-04-29T11:40:17.545Z,17.90
2023-04-29T11:42:48.144Z,18.10
2023-04-29T11:45:19.115Z,18.30
2023-04-29T11:47:49.770Z,18.60
2023-04-29T11:50:20.810Z,18.70
2023-04-29T11:52:50.116Z,18.40
2023-04-29T11:55:18.458Z,18.00
2023-04-29T11:57:47.288Z,17.60
2023-04-29T12:00:16.818Z,17.40
2023-04-29T12:02:47.757Z,17.40
2023-04-29T12:05:19.327Z,17.60
2023-04-29T12:07:48.043Z,17.80
2023-04-29T12:10:16.116Z,17.90
2023-04-29T12:12:45.989Z,18.10
2023-04-29T12:15:14.750Z,18.30
2023-04-29T12:17:44.380Z,18.40
2023-04-29T12:20:13.151Z,18.50
2023-04-29T12:22:44.283Z,18.60
2023-04-29T12:25:13.153Z,18.50
2023-04-29T12:27:43.455Z,18.50
2023-04-29T12:30:12.632Z,18.20
2023-04-29T12:32:41.724Z,18.20
2023-04-29T12:35:17.633Z,18.10
2023-04-29T12:37:49.708Z,17.90
2023-04-29T12:40:20.673Z,17.80
2023-04-29T12:42:49.198Z,17.70
2023-04-29T12:45:32.180Z,17.70
2023-04-29T12:48:01.140Z,17.70
2023-04-29T12:50:33.008Z,17.50
2023-04-29T12:53:03.835Z,17.40
2023-04-29T12:55:34.733Z,17.40
2023-04-29T12:58:03.525Z,17.20
2023-04-29T13:00:31.865Z,17.10
2023-04-29T13:02:59.988Z,17.10
2023-04-29T13:05:28.427Z,17.10
2023-04-29T13:07:57.001Z,17.30
2023-04-29T13:10:28.435Z,17.20
2023-04-29T13:12:56.936Z,17.20
2023-04-29T13:15:24.869Z,17.30
2023-04-29T13:17:53.277Z,17.20
2023-04-29T13:20:22.125Z,17.20
2023-04-29T13:22:50.925Z,17.20
2023-04-29T13:25:19.226Z,17.20
2023-04-29T13:27:50.026Z,17.20
2023-04-29T13:30:18.306Z,17.30
2023-04-29T13:32:54.017Z,17.30
2023-04-29T13:35:23.609Z,17.30
2023-04-29T13:37:52.524Z,17.30
2023-04-29T13:40:22.615Z,17.20
2023-04-29T13:43:02.646Z,17.20
2023-04-29T13:45:39.068Z,17.00
2023-04-29T13:48:17.023Z,16.90
2023-04-29T13:54:03.049Z,17.00
2023-04-29T14:01:44.109Z,17.30
2023-04-29T14:04:05.584Z,17.30
2023-04-29T14:06:34.218Z,17.40
2023-04-29T14:09:03.875Z,17.60
2023-04-29T14:11:36.606Z,17.60
2023-04-29T14:14:06.558Z,17.30
2023-04-29T14:16:34.915Z,17.10
2023-04-29T14:19:04.247Z,17.00
2023-04-29T14:21:33.765Z,17.00
2023-04-29T14:24:02.629Z,16.90
2023-04-29T14:26:34.069Z,16.80
2023-04-29T14:29:02.444Z,16.50
2023-04-29T14:31:35.489Z,16.50
2023-04-29T14:34:03.707Z,16.40
2023-04-29T14:36:33.785Z,16.30
2023-04-29T14:39:03.210Z,16.30
2023-04-29T14:41:31.429Z,16.30
2023-04-29T14:44:00.135Z,16.40
2023-04-29T14:46:29.164Z,16.30
2023-04-29T14:48:58.767Z,16.30
2023-04-29T14:51:27.424Z,16.40
2023-04-29T14:53:55.866Z,16.40
2023-04-29T14:56:24.093Z,16.40
2023-04-29T14:58:54.874Z,16.40
2023-04-29T15:01:23.129Z,16.40
2023-04-29T15:03:53.708Z,16.40
2023-04-29T15:06:23.351Z,16.50
2023-04-29T15:08:52.278Z,16.50
2023-04-29T15:11:21.979Z,16.50
2023-04-29T15:13:50.036Z,16.50
2023-04-29T15:16:18.308Z,16.60
2023-04-29T15:18:46.585Z,16.60
2023-04-29T15:21:15.230Z,16.60
2023-04-29T15:23:44.955Z,16.70
2023-04-29T15:26:13.408Z,16.80
2023-04-29T15:28:45.795Z,16.90
2023-04-29T15:31:14.368Z,16.80
2023-04-29T15:33:44.961Z,16.80
2023-04-29T15:36:16.512Z,17.00
2023-04-29T15:38:49.414Z,17.00
2023-04-29T15:41:18.030Z,17.00
2023-04-29T15:43:48.820Z,17.20
2023-04-29T15:46:17.586Z,16.90
2023-04-29T15:48:46.064Z,17.00
2023-04-29T15:51:15.772Z,17.10
2023-04-29T15:53:45.340Z,17.10
2023-04-29T15:56:13.566Z,17.00
2023-04-29T15:58:44.292Z,17.00
2023-04-29T16:01:12.310Z,17.20
2023-04-29T16:03:40.470Z,17.30
2023-04-29T16:06:10.701Z,17.20
2023-04-29T16:08:38.765Z,17.30
2023-04-29T16:11:08.372Z,17.30
2023-04-29T16:13:36.615Z,17.30
2023-04-29T16:16:05.044Z,17.30
2023-04-29T16:18:33.719Z,17.30
2023-04-29T16:21:02.804Z,17.30
2023-04-29T16:23:30.921Z,17.40
2023-04-29T16:25:59.248Z,17.40
2023-04-29T16:28:28.980Z,17.30
2023-04-29T16:30:57.366Z,17.20
2023-04-29T16:33:25.501Z,17.20
2023-04-29T16:35:54.075Z,17.20
2023-04-29T16:38:22.059Z,17.40
2023-04-29T16:40:50.816Z,17.30
2023-04-29T16:43:19.507Z,17.30
2023-04-29T16:45:49.954Z,17.30
2023-04-29T16:48:18.228Z,17.20
2023-04-29T16:50:47.578Z,17.20
2023-04-29T16:53:16.690Z,17.10
2023-04-29T16:55:45.901Z,17.10
2023-04-29T16:58:13.945Z,17.20
2023-04-29T17:00:43.380Z,16.90
2023-04-29T17:03:13.181Z,16.70
2023-04-29T17:05:41.696Z,16.50
2023-04-29T17:08:12.359Z,16.50
2023-04-29T17:10:43.913Z,16.40
2023-04-29T17:13:13.334Z,16.30
2023-04-29T17:15:41.606Z,16.20
2023-04-29T17:18:09.833Z,16.10
2023-04-29T17:21:03.263Z,16.10
2023-04-29T17:23:30.647Z,16.00
2023-04-29T17:25:58.949Z,16.00
2023-04-29T17:28:27.061Z,15.90
2023-04-29T17:30:59.819Z,15.80
2023-04-29T17:33:34.038Z,15.60
2023-04-29T17:36:04.494Z,15.60
2023-04-29T17:38:33.937Z,15.50
2023-04-29T17:41:04.115Z,15.50
2023-04-29T17:43:35.526Z,15.50
2023-04-29T17:46:03.808Z,15.50
2023-04-29T17:48:32.456Z,15.50
2023-04-29T17:51:00.859Z,15.50
2023-04-29T17:53:30.788Z,15.40
2023-04-29T17:56:00.085Z,15.50
2023-04-29T17:58:29.220Z,15.40
2023-04-29T18:00:57.565Z,15.30
2023-04-29T18:03:27.537Z,15.00
2023-04-29T18:05:56.388Z,15.10
2023-04-29T18:08:24.707Z,15.10
2023-04-29T18:10:56.527Z,15.00
2023-04-29T18:13:26.551Z,14.90
2023-04-29T18:15:58.427Z,14.70
2023-04-29T18:18:26.823Z,14.60
2023-04-29T18:20:56.410Z,14.50
2023-04-29T18:23:24.530Z,14.40
2023-04-29T18:25:54.244Z,14.40
2023-04-29T18:28:25.260Z,14.30
2023-04-29T18:30:54.041Z,14.30
2023-04-29T18:33:23.433Z,14.20
2023-04-29T18:35:51.736Z,14.10
2023-04-29T18:38:19.851Z,13.90
2023-04-29T18:40:48.468Z,13.90
2023-04-29T18:43:22.542Z,13.80
2023-04-29T18:45:51.072Z,13.70
2023-04-29T18:48:19.132Z,13.60
2023-04-29T18:50:47.205Z,13.50
2023-04-29T18:53:15.257Z,13.40
2023-04-29T18:55:44.329Z,13.40
2023-04-29T18:58:12.417Z,13.30
2023-04-29T19:00:41.881Z,13.40
2023-04-29T19:03:10.261Z,13.30
2023-04-29T19:05:39.519Z,13.30
2023-04-29T19:08:08.315Z,13.30
2023-04-29T19:10:36.730Z,13.30
2023-04-29T19:13:04.861Z,13.30
2023-04-29T19:15:34.518Z,13.10
2023-04-29T19:18:04.954Z,13.10
2023-04-29T19:20:33.439Z,13.10
2023-04-29T19:23:01.664Z,13.10
2023-04-29T19:25:31.568Z,13.00
2023-04-29T19:28:00.222Z,12.90
2023-04-29T19:30:28.290Z,12.80
2023-04-29T19:32:58.809Z,12.70
2023-04-29T19:35:28.498Z,12.70
2023-04-29T19:37:59.168Z,12.70
2023-04-29T19:40:27.368Z,12.70
2023-04-29T19:42:55.714Z,12.60
2023-04-29T19:45:23.891Z,12.60
2023-04-29T19:47:52.155Z,12.50
2023-04-29T19:50:20.414Z,12.40
2023-04-29T19:52:50.343Z,12.40
2023-04-29T19:55:19.024Z,12.30
2023-04-29T19:57:47.331Z,12.30
2023-04-29T20:00:15.886Z,12.30
2023-04-29T20:02:44.933Z,12.30
2023-04-29T20:05:14.027Z,12.30
2023-04-29T20:07:42.555Z,12.30
2023-04-29T20:10:12.656Z,12.20
2023-04-29T20:12:40.704Z,12.10
2023-04-29T20:15:10.604Z,12.00
2023-04-29T20:17:39.112Z,12.00
2023-04-29T20:20:09.510Z,12.10
2023-04-29T20:22:38.525Z,11.90
2023-04-29T20:25:07.484Z,11.80
2023-04-29T20:27:37.334Z,11.70
2023-04-29T20:30:06.345Z,11.80
2023-04-29T20:32:34.408Z,11.50
2023-04-29T20:35:02.742Z,11.60
2023-04-29T20:37:31.841Z,11.60
2023-04-29T20:39:59.888Z,11.60
2023-04-29T20:42:28.544Z,11.60
2023-04-29T20:44:58.322Z,11.60
2023-04-29T20:47:27.681Z,11.70
2023-04-29T20:49:56.086Z,11.60
2023-04-29T20:52:25.048Z,11.50
2023-04-29T20:54:53.141Z,11.40
2023-04-29T20:57:21.776Z,11.40
2023-04-29T20:59:49.992Z,11.40
2023-04-29T21:02:19.606Z,11.40
2023-04-29T21:04:48.577Z,11.50
2023-04-29T21:07:16.959Z,11.40
2023-04-29T21:09:45.196Z,11.20
2023-04-29T21:12:15.011Z,11.30
2023-04-29T21:14:44.483Z,11.40
2023-04-29T21:17:12.705Z,11.30
2023-04-29T21:19:42.680Z,11.30
2023-04-29T21:22:10.714Z,11.30
2023-04-29T21:24:39.149Z,11.40
2023-04-29T21:27:07.455Z,11.30
2023-04-29T21:29:40.558Z,11.30
2023-04-29T21:32:08.755Z,11.20
2023-04-29T21:34:37.128Z,11.30
2023-04-29T21:37:06.968Z,11.30
2023-04-29T21:39:35.826Z,11.50
2023-04-29T21:42:04.179Z,11.60
2023-04-29T21:44:35.150Z,11.40
2023-04-29T21:47:04.631Z,11.40
2023-04-29T21:49:33.026Z,11.40
2023-04-29T21:52:01.820Z,11.40
2023-04-29T21:54:31.242Z,11.50
2023-04-29T21:56:59.570Z,11.40
2023-04-29T21:59:32.731Z,11.40
2023-04-29T22:02:01.159Z,11.40
2023-04-29T22:04:29.575Z,11.30
2023-04-29T22:06:58.953Z,11.20
2023-04-29T22:09:27.140Z,11.20
2023-04-29T22:11:56.852Z,11.20
2023-04-29T22:14:24.964Z,11.20
2023-04-29T22:16:53.031Z,11.00
2023-04-29T22:19:21.308Z,11.10
2023-04-29T22:21:49.491Z,11.00
2023-04-29T22:24:17.641Z,11.00
2023-04-29T22:26:47.407Z,10.90
2023-04-29T22:29:17.653Z,10.80
2023-04-29T22:31:45.861Z,10.80
2023-04-29T22:34:14.562Z,10.70
2023-04-29T22:36:44.214Z,10.70
2023-04-29T22:39:12.301Z,10.80
2023-04-29T22:41:42.166Z,10.80
2023-04-29T22:44:10.814Z,10.80
2023-04-29T22:46:40.382Z,10.80
2023-04-29T22:49:08.715Z,10.90
2023-04-29T22:51:37.012Z,10.80
2023-04-29T22:54:05.074Z,10.80
2023-04-29T22:56:33.120Z,10.70
2023-04-29T22:59:01.322Z,10.50
2023-04-29T23:01:29.664Z,10.70
2023-04-29T23:03:59.156Z,10.70
2023-04-29T23:06:27.663Z,10.70
2023-04-29T23:08:56.108Z,10.70
2023-04-29T23:11:24.202Z,10.60
2023-04-29T23:13:52.947Z,10.50
2023-04-29T23:16:21.493Z,10.50
2023-04-29T23:18:49.669Z,10.80
2023-04-29T23:21:19.396Z,10.50
2023-04-29T23:23:47.562Z,10.30
2023-04-29T23:26:16.294Z,10.40
2023-04-29T23:28:44.334Z,10.40
2023-04-29T23:31:12.833Z,10.30
2023-04-29T23:33:41.067Z,10.30
2023-04-29T23:36:09.327Z,10.40
2023-04-29T23:38:38.852Z,10.40
2023-04-29T23:41:06.981Z,10.60
2023-04-29T23:43:34.980Z,10.50
2023-04-29T23:46:03.173Z,10.50
2023-04-29T23:48:31.359Z,10.50
2023-04-29T23:50:59.502Z,10.40
2023-04-29T23:53:27.670Z,10.30
2023-04-29T23:55:57.258Z,10.20
2023-04-29T23:58:25.382Z,10.40
